This is the latest recevied weather packets stored in our database for station/object N6RDS. If no packets are shown the sender has not sent any weather packets the latest 10 day(s).
| Time | Temp. | Humidity | Pressure | Rain* | Wind** | Luminosity | Snow |
|---|---|---|---|---|---|---|---|
| 1777490729 | 19.44° C | 19% | 1025.3 hPa | 0 mm | - | 798 W/m² | - |
| 1777490426 | 19.44° C | 18% | 1025.3 hPa | 0 mm | - | 799 W/m² | - |
| 1777490122 | 18.89° C | 19% | 1025.5 hPa | 0 mm | - | 798 W/m² | - |
| 1777489820 | 19.44° C | 18% | 1025.6 hPa | 0 mm | - | 798 W/m² | - |
| 1777489517 | 17.78° C | 20% | 1025.4 hPa | 0 mm | - | 796 W/m² | - |
| 1777489214 | 18.89° C | 18% | 1025.5 hPa | 0 mm | - | 793 W/m² | - |
| 1777488910 | 18.89° C | 18% | 1025.5 hPa | 0 mm | - | 790 W/m² | - |
| 1777488608 | 18.33° C | 19% | 1025.6 hPa | 0 mm | - | 788 W/m² | - |
| 1777488305 | 18.89° C | 20% | 1025.8 hPa | 0 mm | - | 786 W/m² | - |
| 1777488004 | 18.89° C | 18% | 1025.6 hPa | 0 mm | - | 783 W/m² | - |
| 1777487701 | 18.89° C | 19% | 1025.5 hPa | 0 mm | - | 773 W/m² | - |
| 1777487398 | 18.89° C | 19% | 1025.5 hPa | 0 mm | - | 769 W/m² | - |
| 1777487095 | 18.89° C | 20% | 1025.6 hPa | 0 mm | - | 764 W/m² | - |
| 1777486790 | 18.89° C | 20% | 1026 hPa | 0 mm | - | 758 W/m² | - |
| 1777486489 | 18.89° C | 21% | 1026.1 hPa | 0 mm | - | 752 W/m² | - |
| 1777486186 | 18.33° C | 22% | 1026.1 hPa | 0 mm | - | 746 W/m² | - |
| 1777485884 | 17.22° C | 20% | 1026.3 hPa | 0 mm | - | 738 W/m² | - |
| 1777485579 | 18.33° C | 20% | 1026.1 hPa | 0 mm | - | 732 W/m² | - |
| 1777485275 | 17.78° C | 20% | 1026.1 hPa | 0 mm | - | 725 W/m² | - |
| 1777484972 | 16.67° C | 21% | 1026 hPa | 0 mm | - | 716 W/m² | - |
| 1777484669 | 17.78° C | 21% | 1026.1 hPa | 0 mm | - | 707 W/m² | - |
| 1777484365 | 17.78° C | 21% | 1026.3 hPa | 0 mm | - | 699 W/m² | - |
| 1777484061 | 18.89° C | 19% | 1026.4 hPa | 0 mm | - | 689 W/m² | - |
| 1777483758 | 18.89° C | 18% | 1026.5 hPa | 0 mm | - | 676 W/m² | - |
| 1777483454 | 17.78° C | 22% | 1026.5 hPa | 0 mm | - | 668 W/m² | - |
* Rain latest hour (hover to see other rain measurements)
** Current wind speed in m/s (hover to see current wind gust speed)